sensor_id;sensor_type;location;lat;lon;timestamp;P1;durP1;ratioP1;P2;durP2;ratioP2
65368;SDS011;51970;53.484;49.488;2022-07-23T00:00:00;8.85;;;3.58;;
65368;SDS011;51970;53.484;49.488;2022-07-23T00:02:26;7.00;;;2.83;;
65368;SDS011;51970;53.484;49.488;2022-07-23T00:04:52;8.48;;;3.20;;
65368;SDS011;51970;53.484;49.488;2022-07-23T00:07:18;5.60;;;3.10;;
65368;SDS011;51970;53.484;49.488;2022-07-23T00:09:44;6.78;;;3.05;;
65368;SDS011;51970;53.484;49.488;2022-07-23T00:12:10;7.20;;;2.55;;
65368;SDS011;51970;53.484;49.488;2022-07-23T00:14:36;6.22;;;3.28;;
65368;SDS011;51970;53.484;49.488;2022-07-23T00:17:02;12.38;;;3.92;;
65368;SDS011;51970;53.484;49.488;2022-07-23T00:19:28;5.10;;;2.55;;
65368;SDS011;51970;53.484;49.488;2022-07-23T00:21:54;6.82;;;3.10;;
65368;SDS011;51970;53.484;49.488;2022-07-23T00:24:20;6.68;;;2.47;;
65368;SDS011;51970;53.484;49.488;2022-07-23T00:26:46;6.60;;;3.05;;
65368;SDS011;51970;53.484;49.488;2022-07-23T00:29:12;7.70;;;3.22;;
65368;SDS011;51970;53.484;49.488;2022-07-23T00:31:38;8.52;;;4.40;;
65368;SDS011;51970;53.484;49.488;2022-07-23T00:34:04;6.25;;;3.05;;
65368;SDS011;51970;53.484;49.488;2022-07-23T00:36:30;7.88;;;3.78;;
65368;SDS011;51970;53.484;49.488;2022-07-23T00:38:56;8.55;;;4.13;;
65368;SDS011;51970;53.484;49.488;2022-07-23T00:41:22;6.93;;;3.95;;
65368;SDS011;51970;53.484;49.488;2022-07-23T00:43:49;7.20;;;3.55;;
65368;SDS011;51970;53.484;49.488;2022-07-23T00:46:21;9.02;;;3.63;;
65368;SDS011;51970;53.484;49.488;2022-07-23T00:48:48;8.57;;;4.05;;
65368;SDS011;51970;53.484;49.488;2022-07-23T00:51:15;7.07;;;3.42;;
65368;SDS011;51970;53.484;49.488;2022-07-23T00:53:41;8.27;;;3.90;;
65368;SDS011;51970;53.484;49.488;2022-07-23T00:56:08;10.70;;;3.80;;
65368;SDS011;51970;53.484;49.488;2022-07-23T00:58:35;6.78;;;3.67;;
65368;SDS011;51970;53.484;49.488;2022-07-23T01:01:04;7.85;;;3.50;;
65368;SDS011;51970;53.484;49.488;2022-07-23T01:03:30;9.40;;;4.00;;
65368;SDS011;51970;53.484;49.488;2022-07-23T01:05:56;10.93;;;3.88;;
65368;SDS011;51970;53.484;49.488;2022-07-23T01:08:23;8.05;;;4.40;;
65368;SDS011;51970;53.484;49.488;2022-07-23T01:10:49;7.70;;;3.63;;
65368;SDS011;51970;53.484;49.488;2022-07-23T01:13:17;12.75;;;4.28;;
65368;SDS011;51970;53.484;49.488;2022-07-23T01:15:42;7.53;;;3.65;;
65368;SDS011;51970;53.484;49.488;2022-07-23T01:18:08;7.78;;;4.28;;
65368;SDS011;51970;53.484;49.488;2022-07-23T01:20:35;6.53;;;4.03;;
65368;SDS011;51970;53.484;49.488;2022-07-23T01:23:01;6.80;;;3.75;;
65368;SDS011;51970;53.484;49.488;2022-07-23T01:25:27;7.72;;;3.63;;
65368;SDS011;51970;53.484;49.488;2022-07-23T01:27:53;13.32;;;3.88;;
65368;SDS011;51970;53.484;49.488;2022-07-23T01:30:20;11.23;;;4.30;;
65368;SDS011;51970;53.484;49.488;2022-07-23T01:32:46;12.43;;;3.75;;
65368;SDS011;51970;53.484;49.488;2022-07-23T01:35:12;8.45;;;4.03;;
65368;SDS011;51970;53.484;49.488;2022-07-23T01:37:38;9.93;;;4.47;;
65368;SDS011;51970;53.484;49.488;2022-07-23T01:40:04;8.38;;;4.05;;
65368;SDS011;51970;53.484;49.488;2022-07-23T01:42:31;9.30;;;4.28;;
65368;SDS011;51970;53.484;49.488;2022-07-23T01:44:57;8.15;;;4.88;;
65368;SDS011;51970;53.484;49.488;2022-07-23T01:47:23;8.25;;;3.65;;
65368;SDS011;51970;53.484;49.488;2022-07-23T01:49:49;8.05;;;4.13;;
65368;SDS011;51970;53.484;49.488;2022-07-23T01:52:15;7.25;;;3.80;;
65368;SDS011;51970;53.484;49.488;2022-07-23T01:54:41;11.85;;;3.83;;
65368;SDS011;51970;53.484;49.488;2022-07-23T01:57:07;9.45;;;4.00;;
65368;SDS011;51970;53.484;49.488;2022-07-23T01:59:34;7.57;;;5.07;;
65368;SDS011;51970;53.484;49.488;2022-07-23T02:02:01;9.88;;;3.38;;
65368;SDS011;51970;53.484;49.488;2022-07-23T02:04:29;10.27;;;3.70;;
65368;SDS011;51970;53.484;49.488;2022-07-23T02:06:55;7.03;;;2.95;;
65368;SDS011;51970;53.484;49.488;2022-07-23T02:09:21;17.58;;;3.80;;
65368;SDS011;51970;53.484;49.488;2022-07-23T02:11:47;10.52;;;3.97;;
65368;SDS011;51970;53.484;49.488;2022-07-23T02:14:13;9.15;;;3.92;;
65368;SDS011;51970;53.484;49.488;2022-07-23T02:16:39;11.65;;;3.67;;
65368;SDS011;51970;53.484;49.488;2022-07-23T02:19:05;10.85;;;4.90;;
65368;SDS011;51970;53.484;49.488;2022-07-23T02:21:31;9.55;;;4.10;;
65368;SDS011;51970;53.484;49.488;2022-07-23T02:23:58;9.93;;;4.55;;
65368;SDS011;51970;53.484;49.488;2022-07-23T02:26:24;10.90;;;4.75;;
65368;SDS011;51970;53.484;49.488;2022-07-23T02:28:50;17.02;;;6.65;;
65368;SDS011;51970;53.484;49.488;2022-07-23T02:31:16;11.55;;;4.78;;
65368;SDS011;51970;53.484;49.488;2022-07-23T02:33:41;8.65;;;4.85;;
65368;SDS011;51970;53.484;49.488;2022-07-23T02:36:07;8.95;;;4.90;;
65368;SDS011;51970;53.484;49.488;2022-07-23T02:38:34;15.18;;;4.45;;
65368;SDS011;51970;53.484;49.488;2022-07-23T02:41:00;10.00;;;4.28;;
65368;SDS011;51970;53.484;49.488;2022-07-23T02:43:26;16.30;;;4.22;;
65368;SDS011;51970;53.484;49.488;2022-07-23T02:45:52;9.95;;;4.32;;
65368;SDS011;51970;53.484;49.488;2022-07-23T02:48:18;10.38;;;4.70;;
65368;SDS011;51970;53.484;49.488;2022-07-23T02:50:44;13.68;;;4.82;;
65368;SDS011;51970;53.484;49.488;2022-07-23T02:53:10;13.95;;;5.47;;
65368;SDS011;51970;53.484;49.488;2022-07-23T02:55:36;11.60;;;5.13;;
65368;SDS011;51970;53.484;49.488;2022-07-23T02:58:02;11.40;;;4.93;;
65368;SDS011;51970;53.484;49.488;2022-07-23T03:00:28;11.45;;;4.82;;
65368;SDS011;51970;53.484;49.488;2022-07-23T03:02:54;10.23;;;4.30;;
65368;SDS011;51970;53.484;49.488;2022-07-23T03:05:20;15.57;;;4.90;;
65368;SDS011;51970;53.484;49.488;2022-07-23T03:07:46;12.10;;;5.82;;
65368;SDS011;51970;53.484;49.488;2022-07-23T03:10:12;12.48;;;4.97;;
65368;SDS011;51970;53.484;49.488;2022-07-23T03:12:37;11.10;;;4.97;;
65368;SDS011;51970;53.484;49.488;2022-07-23T03:15:04;13.35;;;5.10;;
65368;SDS011;51970;53.484;49.488;2022-07-23T03:17:30;13.32;;;4.85;;
65368;SDS011;51970;53.484;49.488;2022-07-23T03:19:56;14.18;;;5.10;;
65368;SDS011;51970;53.484;49.488;2022-07-23T03:22:22;13.45;;;5.32;;
65368;SDS011;51970;53.484;49.488;2022-07-23T03:24:48;11.38;;;5.10;;
65368;SDS011;51970;53.484;49.488;2022-07-23T03:27:24;14.00;;;4.95;;
65368;SDS011;51970;53.484;49.488;2022-07-23T03:29:55;13.95;;;5.03;;
65368;SDS011;51970;53.484;49.488;2022-07-23T03:32:23;11.60;;;5.15;;
65368;SDS011;51970;53.484;49.488;2022-07-23T03:34:50;9.15;;;4.60;;
65368;SDS011;51970;53.484;49.488;2022-07-23T03:37:16;9.98;;;4.53;;
65368;SDS011;51970;53.484;49.488;2022-07-23T03:39:43;17.00;;;4.70;;
65368;SDS011;51970;53.484;49.488;2022-07-23T03:42:10;10.90;;;5.18;;
65368;SDS011;51970;53.484;49.488;2022-07-23T03:44:36;7.75;;;4.57;;
65368;SDS011;51970;53.484;49.488;2022-07-23T03:47:03;10.52;;;5.22;;
65368;SDS011;51970;53.484;49.488;2022-07-23T03:49:30;16.88;;;4.25;;
65368;SDS011;51970;53.484;49.488;2022-07-23T03:51:56;12.18;;;4.40;;
65368;SDS011;51970;53.484;49.488;2022-07-23T03:54:22;14.27;;;4.80;;
65368;SDS011;51970;53.484;49.488;2022-07-23T03:56:48;12.10;;;4.45;;
65368;SDS011;51970;53.484;49.488;2022-07-23T03:59:14;9.85;;;4.35;;
65368;SDS011;51970;53.484;49.488;2022-07-23T04:01:40;14.88;;;6.22;;
65368;SDS011;51970;53.484;49.488;2022-07-23T04:04:06;12.95;;;5.57;;
65368;SDS011;51970;53.484;49.488;2022-07-23T04:06:34;10.68;;;4.53;;
65368;SDS011;51970;53.484;49.488;2022-07-23T04:09:00;10.65;;;4.72;;
65368;SDS011;51970;53.484;49.488;2022-07-23T04:11:27;11.50;;;4.28;;
65368;SDS011;51970;53.484;49.488;2022-07-23T04:13:53;11.90;;;5.75;;
65368;SDS011;51970;53.484;49.488;2022-07-23T04:16:18;15.20;;;5.75;;
65368;SDS011;51970;53.484;49.488;2022-07-23T04:18:44;13.20;;;5.45;;
65368;SDS011;51970;53.484;49.488;2022-07-23T04:21:10;11.80;;;6.50;;
65368;SDS011;51970;53.484;49.488;2022-07-23T04:23:37;11.05;;;5.65;;
65368;SDS011;51970;53.484;49.488;2022-07-23T04:26:03;17.80;;;6.63;;
65368;SDS011;51970;53.484;49.488;2022-07-23T04:28:29;14.82;;;5.38;;
65368;SDS011;51970;53.484;49.488;2022-07-23T04:30:58;11.52;;;5.72;;
65368;SDS011;51970;53.484;49.488;2022-07-23T04:33:24;18.77;;;6.30;;
65368;SDS011;51970;53.484;49.488;2022-07-23T04:35:50;11.38;;;7.05;;
65368;SDS011;51970;53.484;49.488;2022-07-23T04:38:16;16.42;;;6.60;;
65368;SDS011;51970;53.484;49.488;2022-07-23T04:40:42;12.80;;;5.88;;
65368;SDS011;51970;53.484;49.488;2022-07-23T04:43:08;11.98;;;6.72;;
65368;SDS011;51970;53.484;49.488;2022-07-23T04:45:34;14.15;;;5.93;;
65368;SDS011;51970;53.484;49.488;2022-07-23T04:48:00;15.77;;;6.40;;
65368;SDS011;51970;53.484;49.488;2022-07-23T04:50:26;13.73;;;5.07;;
65368;SDS011;51970;53.484;49.488;2022-07-23T04:52:52;11.23;;;4.53;;
65368;SDS011;51970;53.484;49.488;2022-07-23T04:55:18;9.60;;;4.20;;
65368;SDS011;51970;53.484;49.488;2022-07-23T04:57:44;9.40;;;4.30;;
65368;SDS011;51970;53.484;49.488;2022-07-23T05:00:10;11.07;;;3.63;;
65368;SDS011;51970;53.484;49.488;2022-07-23T05:02:36;13.75;;;3.83;;
65368;SDS011;51970;53.484;49.488;2022-07-23T05:05:03;6.82;;;3.47;;
65368;SDS011;51970;53.484;49.488;2022-07-23T05:07:29;13.48;;;3.15;;
65368;SDS011;51970;53.484;49.488;2022-07-23T05:09:55;10.73;;;2.90;;
65368;SDS011;51970;53.484;49.488;2022-07-23T05:12:21;6.47;;;2.22;;
65368;SDS011;51970;53.484;49.488;2022-07-23T05:14:47;11.65;;;2.63;;
65368;SDS011;51970;53.484;49.488;2022-07-23T05:17:13;8.38;;;2.47;;
65368;SDS011;51970;53.484;49.488;2022-07-23T05:19:39;7.15;;;2.45;;
65368;SDS011;51970;53.484;49.488;2022-07-23T05:22:05;7.07;;;2.45;;
65368;SDS011;51970;53.484;49.488;2022-07-23T05:24:31;8.85;;;1.92;;
65368;SDS011;51970;53.484;49.488;2022-07-23T05:26:57;8.60;;;2.15;;
65368;SDS011;51970;53.484;49.488;2022-07-23T05:29:23;8.55;;;2.63;;
65368;SDS011;51970;53.484;49.488;2022-07-23T05:31:49;7.43;;;3.10;;
65368;SDS011;51970;53.484;49.488;2022-07-23T05:34:15;8.50;;;3.17;;
65368;SDS011;51970;53.484;49.488;2022-07-23T05:36:41;9.13;;;3.58;;
65368;SDS011;51970;53.484;49.488;2022-07-23T05:39:07;6.47;;;2.58;;
65368;SDS011;51970;53.484;49.488;2022-07-23T05:41:33;21.63;;;2.88;;
65368;SDS011;51970;53.484;49.488;2022-07-23T05:43:59;10.02;;;1.95;;
65368;SDS011;51970;53.484;49.488;2022-07-23T05:46:25;5.97;;;2.10;;
65368;SDS011;51970;53.484;49.488;2022-07-23T05:48:51;10.02;;;2.38;;
65368;SDS011;51970;53.484;49.488;2022-07-23T05:51:23;5.00;;;1.83;;
65368;SDS011;51970;53.484;49.488;2022-07-23T05:53:50;8.85;;;2.45;;
65368;SDS011;51970;53.484;49.488;2022-07-23T05:56:17;10.30;;;1.95;;
65368;SDS011;51970;53.484;49.488;2022-07-23T05:58:43;8.32;;;2.30;;
65368;SDS011;51970;53.484;49.488;2022-07-23T06:01:10;12.32;;;2.58;;
65368;SDS011;51970;53.484;49.488;2022-07-23T06:03:37;6.72;;;2.03;;
65368;SDS011;51970;53.484;49.488;2022-07-23T06:06:04;5.22;;;1.90;;
65368;SDS011;51970;53.484;49.488;2022-07-23T06:08:30;10.70;;;2.10;;
65368;SDS011;51970;53.484;49.488;2022-07-23T06:10:56;7.63;;;1.92;;
65368;SDS011;51970;53.484;49.488;2022-07-23T06:13:22;9.75;;;2.38;;
65368;SDS011;51970;53.484;49.488;2022-07-23T06:15:49;7.82;;;2.45;;
65368;SDS011;51970;53.484;49.488;2022-07-23T06:18:15;7.28;;;1.90;;
65368;SDS011;51970;53.484;49.488;2022-07-23T06:20:41;4.97;;;2.08;;
65368;SDS011;51970;53.484;49.488;2022-07-23T06:23:06;7.47;;;1.95;;
65368;SDS011;51970;53.484;49.488;2022-07-23T06:25:32;9.93;;;2.35;;
65368;SDS011;51970;53.484;49.488;2022-07-23T06:27:59;10.23;;;3.10;;
65368;SDS011;51970;53.484;49.488;2022-07-23T06:30:25;10.43;;;3.97;;
65368;SDS011;51970;53.484;49.488;2022-07-23T06:32:51;10.63;;;3.25;;
65368;SDS011;51970;53.484;49.488;2022-07-23T06:35:17;8.25;;;2.78;;
65368;SDS011;51970;53.484;49.488;2022-07-23T06:37:43;12.00;;;2.38;;
65368;SDS011;51970;53.484;49.488;2022-07-23T06:40:09;6.88;;;2.08;;
65368;SDS011;51970;53.484;49.488;2022-07-23T06:42:35;8.25;;;2.83;;
65368;SDS011;51970;53.484;49.488;2022-07-23T06:45:04;11.57;;;2.85;;
65368;SDS011;51970;53.484;49.488;2022-07-23T06:47:31;9.30;;;2.42;;
65368;SDS011;51970;53.484;49.488;2022-07-23T06:49:57;9.77;;;2.08;;
65368;SDS011;51970;53.484;49.488;2022-07-23T06:52:24;11.50;;;2.70;;
65368;SDS011;51970;53.484;49.488;2022-07-23T06:54:51;10.20;;;2.97;;
65368;SDS011;51970;53.484;49.488;2022-07-23T06:57:18;7.72;;;2.08;;
65368;SDS011;51970;53.484;49.488;2022-07-23T06:59:44;8.48;;;2.55;;
65368;SDS011;51970;53.484;49.488;2022-07-23T07:02:10;11.50;;;2.67;;
65368;SDS011;51970;53.484;49.488;2022-07-23T07:04:36;9.90;;;2.50;;
65368;SDS011;51970;53.484;49.488;2022-07-23T07:07:02;12.52;;;3.38;;
65368;SDS011;51970;53.484;49.488;2022-07-23T07:09:29;8.85;;;2.50;;
65368;SDS011;51970;53.484;49.488;2022-07-23T07:11:55;13.27;;;8.93;;
65368;SDS011;51970;53.484;49.488;2022-07-23T07:14:21;8.45;;;2.25;;
65368;SDS011;51970;53.484;49.488;2022-07-23T07:16:48;7.80;;;2.28;;
65368;SDS011;51970;53.484;49.488;2022-07-23T07:19:14;12.18;;;3.25;;
65368;SDS011;51970;53.484;49.488;2022-07-23T07:21:40;11.20;;;4.88;;
65368;SDS011;51970;53.484;49.488;2022-07-23T07:24:06;12.70;;;2.78;;
65368;SDS011;51970;53.484;49.488;2022-07-23T07:26:32;7.90;;;3.40;;
65368;SDS011;51970;53.484;49.488;2022-07-23T07:28:58;24.15;;;4.88;;
65368;SDS011;51970;53.484;49.488;2022-07-23T07:31:24;44.80;;;24.52;;
65368;SDS011;51970;53.484;49.488;2022-07-23T07:33:50;23.60;;;5.65;;
65368;SDS011;51970;53.484;49.488;2022-07-23T07:36:16;13.80;;;4.55;;
65368;SDS011;51970;53.484;49.488;2022-07-23T07:38:42;13.18;;;3.90;;
65368;SDS011;51970;53.484;49.488;2022-07-23T07:41:09;13.60;;;3.80;;
65368;SDS011;51970;53.484;49.488;2022-07-23T07:43:35;10.63;;;3.25;;
65368;SDS011;51970;53.484;49.488;2022-07-23T07:46:02;17.10;;;3.03;;
65368;SDS011;51970;53.484;49.488;2022-07-23T07:48:29;19.08;;;5.03;;
65368;SDS011;51970;53.484;49.488;2022-07-23T07:50:55;13.43;;;3.80;;
65368;SDS011;51970;53.484;49.488;2022-07-23T07:53:21;12.02;;;3.45;;
65368;SDS011;51970;53.484;49.488;2022-07-23T07:55:47;8.65;;;2.97;;
65368;SDS011;51970;53.484;49.488;2022-07-23T07:58:13;11.57;;;2.58;;
65368;SDS011;51970;53.484;49.488;2022-07-23T08:00:39;10.88;;;3.15;;
65368;SDS011;51970;53.484;49.488;2022-07-23T08:03:05;8.77;;;2.72;;
65368;SDS011;51970;53.484;49.488;2022-07-23T08:05:31;17.60;;;3.42;;
65368;SDS011;51970;53.484;49.488;2022-07-23T08:07:58;14.10;;;2.88;;
65368;SDS011;51970;53.484;49.488;2022-07-23T08:10:25;22.48;;;3.72;;
65368;SDS011;51970;53.484;49.488;2022-07-23T08:12:54;7.47;;;2.90;;
65368;SDS011;51970;53.484;49.488;2022-07-23T08:15:22;10.02;;;2.90;;
65368;SDS011;51970;53.484;49.488;2022-07-23T08:17:49;12.60;;;2.85;;
65368;SDS011;51970;53.484;49.488;2022-07-23T08:20:15;10.02;;;2.40;;
65368;SDS011;51970;53.484;49.488;2022-07-23T08:22:54;7.78;;;2.60;;
65368;SDS011;51970;53.484;49.488;2022-07-23T08:25:28;10.65;;;3.15;;
65368;SDS011;51970;53.484;49.488;2022-07-23T08:27:56;12.68;;;3.05;;
65368;SDS011;51970;53.484;49.488;2022-07-23T08:30:23;7.88;;;2.50;;
65368;SDS011;51970;53.484;49.488;2022-07-23T08:32:50;11.45;;;2.88;;
65368;SDS011;51970;53.484;49.488;2022-07-23T08:37:56;6.38;;;3.20;;
65368;SDS011;51970;53.484;49.488;2022-07-23T08:40:23;12.07;;;2.50;;
65368;SDS011;51970;53.484;49.488;2022-07-23T08:42:51;9.23;;;3.05;;
65368;SDS011;51970;53.484;49.488;2022-07-23T08:45:18;6.80;;;3.78;;
65368;SDS011;51970;53.484;49.488;2022-07-23T08:47:52;10.50;;;3.05;;
65368;SDS011;51970;53.484;49.488;2022-07-23T08:50:24;7.28;;;2.15;;
65368;SDS011;51970;53.484;49.488;2022-07-23T08:52:51;11.35;;;3.00;;
65368;SDS011;51970;53.484;49.488;2022-07-23T08:55:19;11.32;;;2.55;;
65368;SDS011;51970;53.484;49.488;2022-07-23T08:57:47;10.55;;;3.50;;
65368;SDS011;51970;53.484;49.488;2022-07-23T09:00:15;7.70;;;3.15;;
65368;SDS011;51970;53.484;49.488;2022-07-23T09:02:42;10.52;;;2.15;;
65368;SDS011;51970;53.484;49.488;2022-07-23T09:05:09;9.13;;;2.25;;
65368;SDS011;51970;53.484;49.488;2022-07-23T09:07:37;6.82;;;2.00;;
65368;SDS011;51970;53.484;49.488;2022-07-23T09:10:23;6.35;;;1.60;;
65368;SDS011;51970;53.484;49.488;2022-07-23T09:12:49;5.10;;;2.17;;
65368;SDS011;51970;53.484;49.488;2022-07-23T09:15:15;7.30;;;2.03;;
65368;SDS011;51970;53.484;49.488;2022-07-23T09:17:42;8.27;;;1.63;;
65368;SDS011;51970;53.484;49.488;2022-07-23T09:20:09;7.72;;;2.15;;
65368;SDS011;51970;53.484;49.488;2022-07-23T09:22:46;9.85;;;2.55;;
65368;SDS011;51970;53.484;49.488;2022-07-23T09:25:15;12.20;;;2.53;;
65368;SDS011;51970;53.484;49.488;2022-07-23T09:27:46;16.05;;;3.85;;
65368;SDS011;51970;53.484;49.488;2022-07-23T09:30:15;21.13;;;5.95;;
65368;SDS011;51970;53.484;49.488;2022-07-23T09:32:42;26.08;;;6.22;;
65368;SDS011;51970;53.484;49.488;2022-07-23T09:35:08;21.80;;;5.32;;
65368;SDS011;51970;53.484;49.488;2022-07-23T09:37:34;13.23;;;3.28;;
65368;SDS011;51970;53.484;49.488;2022-07-23T09:40:18;10.00;;;3.28;;
65368;SDS011;51970;53.484;49.488;2022-07-23T09:42:54;10.40;;;2.47;;
65368;SDS011;51970;53.484;49.488;2022-07-23T09:45:20;8.35;;;1.90;;
65368;SDS011;51970;53.484;49.488;2022-07-23T09:47:46;8.32;;;2.42;;
65368;SDS011;51970;53.484;49.488;2022-07-23T09:50:12;8.15;;;2.08;;
65368;SDS011;51970;53.484;49.488;2022-07-23T09:52:43;7.13;;;1.92;;
65368;SDS011;51970;53.484;49.488;2022-07-23T09:55:14;7.22;;;2.65;;
65368;SDS011;51970;53.484;49.488;2022-07-23T09:57:41;5.55;;;2.00;;
65368;SDS011;51970;53.484;49.488;2022-07-23T10:00:10;9.68;;;2.05;;
65368;SDS011;51970;53.484;49.488;2022-07-23T10:02:37;9.00;;;2.42;;
65368;SDS011;51970;53.484;49.488;2022-07-23T10:05:04;8.10;;;2.22;;
65368;SDS011;51970;53.484;49.488;2022-07-23T10:07:32;6.30;;;1.67;;
65368;SDS011;51970;53.484;49.488;2022-07-23T10:10:02;9.15;;;2.95;;
65368;SDS011;51970;53.484;49.488;2022-07-23T10:12:29;8.82;;;2.15;;
65368;SDS011;51970;53.484;49.488;2022-07-23T10:15:14;6.68;;;1.90;;
65368;SDS011;51970;53.484;49.488;2022-07-23T10:17:41;8.27;;;1.98;;
65368;SDS011;51970;53.484;49.488;2022-07-23T10:20:07;7.13;;;1.77;;
65368;SDS011;51970;53.484;49.488;2022-07-23T10:22:34;9.65;;;1.88;;
65368;SDS011;51970;53.484;49.488;2022-07-23T10:25:11;12.23;;;2.17;;
65368;SDS011;51970;53.484;49.488;2022-07-23T10:33:45;9.13;;;2.78;;
65368;SDS011;51970;53.484;49.488;2022-07-23T10:39:04;5.85;;;1.45;;
65368;SDS011;51970;53.484;49.488;2022-07-23T10:41:34;6.90;;;1.17;;
65368;SDS011;51970;53.484;49.488;2022-07-23T10:44:17;4.20;;;1.35;;
65368;SDS011;51970;53.484;49.488;2022-07-23T10:49:28;4.47;;;1.75;;
65368;SDS011;51970;53.484;49.488;2022-07-23T10:54:43;5.22;;;1.50;;
65368;SDS011;51970;53.484;49.488;2022-07-23T10:57:11;5.97;;;0.95;;
65368;SDS011;51970;53.484;49.488;2022-07-23T11:03:00;4.65;;;1.30;;
65368;SDS011;51970;53.484;49.488;2022-07-23T11:05:44;6.55;;;1.65;;
65368;SDS011;51970;53.484;49.488;2022-07-23T11:08:20;11.02;;;3.13;;
65368;SDS011;51970;53.484;49.488;2022-07-23T11:10:47;11.80;;;2.92;;
65368;SDS011;51970;53.484;49.488;2022-07-23T11:31:55;30.75;;;15.68;;
65368;SDS011;51970;53.484;49.488;2022-07-23T11:34:41;8.18;;;3.53;;
65368;SDS011;51970;53.484;49.488;2022-07-23T11:37:11;17.90;;;3.67;;
65368;SDS011;51970;53.484;49.488;2022-07-23T11:39:53;10.52;;;2.90;;
65368;SDS011;51970;53.484;49.488;2022-07-23T11:42:20;10.25;;;3.10;;
65368;SDS011;51970;53.484;49.488;2022-07-23T11:44:47;35.25;;;19.40;;
65368;SDS011;51970;53.484;49.488;2022-07-23T11:47:13;71.45;;;38.88;;
65368;SDS011;51970;53.484;49.488;2022-07-23T11:49:51;36.50;;;12.57;;
65368;SDS011;51970;53.484;49.488;2022-07-23T11:52:18;50.78;;;26.00;;
65368;SDS011;51970;53.484;49.488;2022-07-23T11:54:51;31.27;;;11.88;;
65368;SDS011;51970;53.484;49.488;2022-07-23T11:57:25;22.83;;;8.07;;
65368;SDS011;51970;53.484;49.488;2022-07-23T11:59:57;24.90;;;8.75;;
65368;SDS011;51970;53.484;49.488;2022-07-23T12:02:30;31.40;;;11.30;;
65368;SDS011;51970;53.484;49.488;2022-07-23T12:04:56;26.40;;;9.68;;
65368;SDS011;51970;53.484;49.488;2022-07-23T12:07:23;31.83;;;9.13;;
65368;SDS011;51970;53.484;49.488;2022-07-23T12:09:54;30.95;;;9.30;;
65368;SDS011;51970;53.484;49.488;2022-07-23T12:12:24;39.05;;;13.32;;
65368;SDS011;51970;53.484;49.488;2022-07-23T12:14:52;31.27;;;9.57;;
65368;SDS011;51970;53.484;49.488;2022-07-23T12:17:20;33.70;;;11.15;;
65368;SDS011;51970;53.484;49.488;2022-07-23T12:19:47;38.55;;;11.43;;
65368;SDS011;51970;53.484;49.488;2022-07-23T12:22:13;38.72;;;12.93;;
65368;SDS011;51970;53.484;49.488;2022-07-23T12:27:26;36.25;;;11.70;;
65368;SDS011;51970;53.484;49.488;2022-07-23T12:29:53;27.50;;;9.52;;
65368;SDS011;51970;53.484;49.488;2022-07-23T12:32:28;26.95;;;9.27;;
65368;SDS011;51970;53.484;49.488;2022-07-23T12:35:08;28.38;;;8.65;;
65368;SDS011;51970;53.484;49.488;2022-07-23T12:37:35;25.70;;;9.95;;
65368;SDS011;51970;53.484;49.488;2022-07-23T12:40:23;20.50;;;6.95;;
65368;SDS011;51970;53.484;49.488;2022-07-23T12:42:59;14.57;;;5.95;;
65368;SDS011;51970;53.484;49.488;2022-07-23T12:48:35;22.85;;;6.57;;
65368;SDS011;51970;53.484;49.488;2022-07-23T12:51:03;18.95;;;5.78;;
65368;SDS011;51970;53.484;49.488;2022-07-23T12:53:31;21.98;;;6.90;;
65368;SDS011;51970;53.484;49.488;2022-07-23T13:09:01;52.35;;;18.88;;
65368;SDS011;51970;53.484;49.488;2022-07-23T13:11:29;53.35;;;17.77;;
65368;SDS011;51970;53.484;49.488;2022-07-23T13:13:55;40.05;;;16.17;;
65368;SDS011;51970;53.484;49.488;2022-07-23T13:16:21;52.42;;;16.48;;
65368;SDS011;51970;53.484;49.488;2022-07-23T13:18:47;43.30;;;12.63;;
65368;SDS011;51970;53.484;49.488;2022-07-23T13:21:13;37.85;;;12.30;;
65368;SDS011;51970;53.484;49.488;2022-07-23T13:23:39;33.35;;;11.82;;
65368;SDS011;51970;53.484;49.488;2022-07-23T13:26:07;30.65;;;10.55;;
65368;SDS011;51970;53.484;49.488;2022-07-23T13:28:33;33.53;;;10.05;;
65368;SDS011;51970;53.484;49.488;2022-07-23T13:30:59;26.05;;;9.55;;
65368;SDS011;51970;53.484;49.488;2022-07-23T13:33:25;28.65;;;8.55;;
65368;SDS011;51970;53.484;49.488;2022-07-23T13:35:51;20.85;;;7.47;;
65368;SDS011;51970;53.484;49.488;2022-07-23T13:38:18;22.90;;;8.45;;
65368;SDS011;51970;53.484;49.488;2022-07-23T13:40:46;31.65;;;8.95;;
65368;SDS011;51970;53.484;49.488;2022-07-23T13:43:15;21.38;;;6.55;;
65368;SDS011;51970;53.484;49.488;2022-07-23T13:45:43;17.90;;;7.00;;
65368;SDS011;51970;53.484;49.488;2022-07-23T13:48:11;23.00;;;6.68;;
65368;SDS011;51970;53.484;49.488;2022-07-23T13:50:38;28.92;;;6.57;;
65368;SDS011;51970;53.484;49.488;2022-07-23T13:53:07;21.10;;;5.85;;
65368;SDS011;51970;53.484;49.488;2022-07-23T13:55:38;10.05;;;3.25;;
65368;SDS011;51970;53.484;49.488;2022-07-23T13:58:05;8.13;;;2.95;;
65368;SDS011;51970;53.484;49.488;2022-07-23T14:00:32;10.40;;;3.08;;
65368;SDS011;51970;53.484;49.488;2022-07-23T14:02:59;7.43;;;2.22;;
65368;SDS011;51970;53.484;49.488;2022-07-23T14:05:26;6.57;;;2.45;;
65368;SDS011;51970;53.484;49.488;2022-07-23T14:07:53;17.70;;;6.60;;
65368;SDS011;51970;53.484;49.488;2022-07-23T14:10:20;7.88;;;3.17;;
65368;SDS011;51970;53.484;49.488;2022-07-23T14:12:47;10.25;;;2.75;;
65368;SDS011;51970;53.484;49.488;2022-07-23T14:15:14;9.27;;;2.25;;
65368;SDS011;51970;53.484;49.488;2022-07-23T14:17:41;6.35;;;1.52;;
65368;SDS011;51970;53.484;49.488;2022-07-23T14:20:09;7.93;;;2.17;;
65368;SDS011;51970;53.484;49.488;2022-07-23T14:22:37;7.60;;;1.90;;
65368;SDS011;51970;53.484;49.488;2022-07-23T14:25:04;6.10;;;2.03;;
65368;SDS011;51970;53.484;49.488;2022-07-23T14:27:32;5.50;;;2.35;;
65368;SDS011;51970;53.484;49.488;2022-07-23T14:29:58;6.13;;;1.85;;
65368;SDS011;51970;53.484;49.488;2022-07-23T14:32:24;5.47;;;2.15;;
65368;SDS011;51970;53.484;49.488;2022-07-23T14:34:50;6.50;;;1.80;;
65368;SDS011;51970;53.484;49.488;2022-07-23T14:37:16;8.07;;;1.88;;
65368;SDS011;51970;53.484;49.488;2022-07-23T14:39:43;9.00;;;1.77;;
65368;SDS011;51970;53.484;49.488;2022-07-23T14:42:10;9.90;;;1.92;;
65368;SDS011;51970;53.484;49.488;2022-07-23T14:44:36;8.40;;;3.25;;
65368;SDS011;51970;53.484;49.488;2022-07-23T14:47:03;6.60;;;2.17;;
65368;SDS011;51970;53.484;49.488;2022-07-23T14:49:33;5.47;;;1.92;;
65368;SDS011;51970;53.484;49.488;2022-07-23T14:51:59;7.90;;;2.60;;
65368;SDS011;51970;53.484;49.488;2022-07-23T14:54:27;7.15;;;2.17;;
65368;SDS011;51970;53.484;49.488;2022-07-23T14:56:54;6.10;;;2.42;;
65368;SDS011;51970;53.484;49.488;2022-07-23T14:59:21;10.77;;;2.80;;
65368;SDS011;51970;53.484;49.488;2022-07-23T15:01:47;12.07;;;3.45;;
65368;SDS011;51970;53.484;49.488;2022-07-23T15:04:13;11.65;;;3.88;;
65368;SDS011;51970;53.484;49.488;2022-07-23T15:06:40;14.32;;;5.20;;
65368;SDS011;51970;53.484;49.488;2022-07-23T15:09:06;13.15;;;3.40;;
65368;SDS011;51970;53.484;49.488;2022-07-23T15:11:32;14.00;;;4.72;;
65368;SDS011;51970;53.484;49.488;2022-07-23T15:14:00;12.55;;;4.05;;
65368;SDS011;51970;53.484;49.488;2022-07-23T15:16:26;13.00;;;4.20;;
65368;SDS011;51970;53.484;49.488;2022-07-23T15:18:53;12.25;;;4.10;;
65368;SDS011;51970;53.484;49.488;2022-07-23T15:21:19;10.65;;;3.55;;
65368;SDS011;51970;53.484;49.488;2022-07-23T15:23:46;10.75;;;3.00;;